sensor_id;sensor_type;location;lat;lon;timestamp;temperature;humidity
25058;DHT22;13057;50.978;11.034;2024-03-07T00:00:35;6.40;99.90
25058;DHT22;13057;50.978;11.034;2024-03-07T00:03:01;6.40;99.90
25058;DHT22;13057;50.978;11.034;2024-03-07T00:05:29;6.40;99.90
25058;DHT22;13057;50.978;11.034;2024-03-07T00:07:55;6.50;99.90
25058;DHT22;13057;50.978;11.034;2024-03-07T00:10:21;6.50;99.90
25058;DHT22;13057;50.978;11.034;2024-03-07T00:12:47;6.60;99.90
25058;DHT22;13057;50.978;11.034;2024-03-07T00:15:14;6.60;99.90
25058;DHT22;13057;50.978;11.034;2024-03-07T00:17:41;6.60;99.90
25058;DHT22;13057;50.978;11.034;2024-03-07T00:20:07;6.70;99.90
25058;DHT22;13057;50.978;11.034;2024-03-07T00:22:35;6.60;99.90
25058;DHT22;13057;50.978;11.034;2024-03-07T00:25:02;6.50;99.90
25058;DHT22;13057;50.978;11.034;2024-03-07T00:27:31;6.50;99.90
25058;DHT22;13057;50.978;11.034;2024-03-07T00:29:58;6.50;99.90
25058;DHT22;13057;50.978;11.034;2024-03-07T00:32:24;6.50;99.90
25058;DHT22;13057;50.978;11.034;2024-03-07T00:34:52;6.50;99.90
25058;DHT22;13057;50.978;11.034;2024-03-07T00:37:18;6.50;99.90
25058;DHT22;13057;50.978;11.034;2024-03-07T00:39:44;6.50;99.90
25058;DHT22;13057;50.978;11.034;2024-03-07T00:42:10;6.50;99.90
25058;DHT22;13057;50.978;11.034;2024-03-07T00:44:36;6.50;99.90
25058;DHT22;13057;50.978;11.034;2024-03-07T00:47:03;6.50;99.90
25058;DHT22;13057;50.978;11.034;2024-03-07T00:49:30;6.50;99.90
25058;DHT22;13057;50.978;11.034;2024-03-07T00:51:57;6.50;99.90
25058;DHT22;13057;50.978;11.034;2024-03-07T00:54:23;6.50;99.90
25058;DHT22;13057;50.978;11.034;2024-03-07T00:56:49;6.50;99.90
25058;DHT22;13057;50.978;11.034;2024-03-07T00:59:16;6.50;99.90
25058;DHT22;13057;50.978;11.034;2024-03-07T01:01:42;6.60;99.90
25058;DHT22;13057;50.978;11.034;2024-03-07T01:04:08;6.60;99.90
25058;DHT22;13057;50.978;11.034;2024-03-07T01:06:35;6.60;99.90
25058;DHT22;13057;50.978;11.034;2024-03-07T01:09:02;6.60;99.90
25058;DHT22;13057;50.978;11.034;2024-03-07T01:11:28;6.60;99.90
25058;DHT22;13057;50.978;11.034;2024-03-07T01:13:55;6.60;99.90
25058;DHT22;13057;50.978;11.034;2024-03-07T01:16:21;6.60;99.90
25058;DHT22;13057;50.978;11.034;2024-03-07T01:18:47;6.60;99.90
25058;DHT22;13057;50.978;11.034;2024-03-07T01:21:14;6.60;99.90
25058;DHT22;13057;50.978;11.034;2024-03-07T01:23:41;6.70;99.90
25058;DHT22;13057;50.978;11.034;2024-03-07T01:26:07;6.70;99.90
25058;DHT22;13057;50.978;11.034;2024-03-07T01:28:34;6.70;99.90
25058;DHT22;13057;50.978;11.034;2024-03-07T01:31:00;6.70;99.90
25058;DHT22;13057;50.978;11.034;2024-03-07T01:33:26;6.70;99.90
25058;DHT22;13057;50.978;11.034;2024-03-07T01:35:52;6.70;99.90
25058;DHT22;13057;50.978;11.034;2024-03-07T01:38:18;6.80;99.90
25058;DHT22;13057;50.978;11.034;2024-03-07T01:40:44;6.80;99.90
25058;DHT22;13057;50.978;11.034;2024-03-07T01:43:11;6.80;99.90
25058;DHT22;13057;50.978;11.034;2024-03-07T01:45:38;6.80;99.90
25058;DHT22;13057;50.978;11.034;2024-03-07T01:48:05;6.70;99.90
25058;DHT22;13057;50.978;11.034;2024-03-07T01:50:32;6.80;99.90
25058;DHT22;13057;50.978;11.034;2024-03-07T01:52:59;6.80;99.90
25058;DHT22;13057;50.978;11.034;2024-03-07T01:55:25;6.70;99.90
25058;DHT22;13057;50.978;11.034;2024-03-07T01:57:52;6.70;99.90
25058;DHT22;13057;50.978;11.034;2024-03-07T02:00:19;6.60;99.90
25058;DHT22;13057;50.978;11.034;2024-03-07T02:02:45;6.60;99.90
25058;DHT22;13057;50.978;11.034;2024-03-07T02:05:12;6.60;99.90
25058;DHT22;13057;50.978;11.034;2024-03-07T02:07:39;6.70;99.90
25058;DHT22;13057;50.978;11.034;2024-03-07T02:13:27;6.80;99.90
25058;DHT22;13057;50.978;11.034;2024-03-07T02:15:53;6.70;99.90
25058;DHT22;13057;50.978;11.034;2024-03-07T02:18:20;6.70;99.90
25058;DHT22;13057;50.978;11.034;2024-03-07T02:20:46;6.80;99.90
25058;DHT22;13057;50.978;11.034;2024-03-07T02:23:13;6.80;99.90
25058;DHT22;13057;50.978;11.034;2024-03-07T02:25:40;6.70;99.90
25058;DHT22;13057;50.978;11.034;2024-03-07T02:28:06;6.70;99.90
25058;DHT22;13057;50.978;11.034;2024-03-07T02:30:32;6.80;99.90
25058;DHT22;13057;50.978;11.034;2024-03-07T02:32:59;6.80;99.90
25058;DHT22;13057;50.978;11.034;2024-03-07T02:35:33;6.80;99.90
25058;DHT22;13057;50.978;11.034;2024-03-07T02:38:02;6.80;99.90
25058;DHT22;13057;50.978;11.034;2024-03-07T02:40:28;6.80;99.90
25058;DHT22;13057;50.978;11.034;2024-03-07T02:42:55;6.70;99.90
25058;DHT22;13057;50.978;11.034;2024-03-07T02:45:20;6.80;99.90
25058;DHT22;13057;50.978;11.034;2024-03-07T02:47:46;6.80;99.90
25058;DHT22;13057;50.978;11.034;2024-03-07T02:50:12;6.80;99.90
25058;DHT22;13057;50.978;11.034;2024-03-07T02:52:38;6.80;99.90
25058;DHT22;13057;50.978;11.034;2024-03-07T02:55:05;6.80;99.90
25058;DHT22;13057;50.978;11.034;2024-03-07T02:57:31;6.80;99.90
25058;DHT22;13057;50.978;11.034;2024-03-07T02:59:59;6.80;99.90
25058;DHT22;13057;50.978;11.034;2024-03-07T03:02:24;6.90;99.90
25058;DHT22;13057;50.978;11.034;2024-03-07T03:04:50;6.90;99.90
25058;DHT22;13057;50.978;11.034;2024-03-07T03:07:16;6.80;99.90
25058;DHT22;13057;50.978;11.034;2024-03-07T03:09:43;6.80;99.90
25058;DHT22;13057;50.978;11.034;2024-03-07T03:12:09;6.80;99.90
25058;DHT22;13057;50.978;11.034;2024-03-07T03:14:36;6.80;99.90
25058;DHT22;13057;50.978;11.034;2024-03-07T03:17:02;6.80;99.90
25058;DHT22;13057;50.978;11.034;2024-03-07T03:19:28;6.90;99.90
25058;DHT22;13057;50.978;11.034;2024-03-07T03:21:54;6.90;99.90
25058;DHT22;13057;50.978;11.034;2024-03-07T03:24:21;6.90;99.90
25058;DHT22;13057;50.978;11.034;2024-03-07T03:26:48;6.90;99.90
25058;DHT22;13057;50.978;11.034;2024-03-07T03:29:13;6.90;99.90
25058;DHT22;13057;50.978;11.034;2024-03-07T03:31:41;6.90;99.90
25058;DHT22;13057;50.978;11.034;2024-03-07T03:34:07;6.90;99.90
25058;DHT22;13057;50.978;11.034;2024-03-07T03:36:35;6.90;99.90
25058;DHT22;13057;50.978;11.034;2024-03-07T03:39:01;6.90;99.90
25058;DHT22;13057;50.978;11.034;2024-03-07T03:41:26;6.90;99.90
25058;DHT22;13057;50.978;11.034;2024-03-07T03:43:53;6.90;99.90
25058;DHT22;13057;50.978;11.034;2024-03-07T03:46:18;6.90;99.90
25058;DHT22;13057;50.978;11.034;2024-03-07T03:48:44;6.90;99.90
25058;DHT22;13057;50.978;11.034;2024-03-07T03:51:10;6.90;99.90
25058;DHT22;13057;50.978;11.034;2024-03-07T03:53:38;7.00;99.90
25058;DHT22;13057;50.978;11.034;2024-03-07T03:56:04;7.00;99.90
25058;DHT22;13057;50.978;11.034;2024-03-07T03:58:31;6.90;99.90
25058;DHT22;13057;50.978;11.034;2024-03-07T04:00:58;6.90;99.90
25058;DHT22;13057;50.978;11.034;2024-03-07T04:03:25;6.90;99.90
25058;DHT22;13057;50.978;11.034;2024-03-07T04:05:52;6.80;99.90
25058;DHT22;13057;50.978;11.034;2024-03-07T04:08:18;6.80;99.90
25058;DHT22;13057;50.978;11.034;2024-03-07T04:10:46;6.80;99.90
25058;DHT22;13057;50.978;11.034;2024-03-07T04:13:11;6.80;99.90
25058;DHT22;13057;50.978;11.034;2024-03-07T04:15:38;6.70;99.90
25058;DHT22;13057;50.978;11.034;2024-03-07T04:18:04;6.80;99.90
25058;DHT22;13057;50.978;11.034;2024-03-07T04:20:30;6.80;99.90
25058;DHT22;13057;50.978;11.034;2024-03-07T04:22:56;6.80;99.90
25058;DHT22;13057;50.978;11.034;2024-03-07T04:25:22;6.80;99.90
25058;DHT22;13057;50.978;11.034;2024-03-07T04:27:48;6.80;99.90
25058;DHT22;13057;50.978;11.034;2024-03-07T04:30:15;6.90;99.90
25058;DHT22;13057;50.978;11.034;2024-03-07T04:32:42;6.90;99.90
25058;DHT22;13057;50.978;11.034;2024-03-07T04:35:08;6.90;99.90
25058;DHT22;13057;50.978;11.034;2024-03-07T04:37:37;6.90;99.90
25058;DHT22;13057;50.978;11.034;2024-03-07T04:40:07;7.00;99.90
25058;DHT22;13057;50.978;11.034;2024-03-07T04:42:43;6.90;99.90
25058;DHT22;13057;50.978;11.034;2024-03-07T04:45:10;6.90;99.90
25058;DHT22;13057;50.978;11.034;2024-03-07T04:47:40;6.90;99.90
25058;DHT22;13057;50.978;11.034;2024-03-07T04:50:07;6.90;99.90
25058;DHT22;13057;50.978;11.034;2024-03-07T04:52:36;6.90;99.90
25058;DHT22;13057;50.978;11.034;2024-03-07T04:55:04;6.80;99.90
25058;DHT22;13057;50.978;11.034;2024-03-07T04:57:31;6.90;99.90
25058;DHT22;13057;50.978;11.034;2024-03-07T04:59:56;6.80;99.90
25058;DHT22;13057;50.978;11.034;2024-03-07T05:02:22;6.80;99.90
25058;DHT22;13057;50.978;11.034;2024-03-07T05:04:49;6.80;99.90
25058;DHT22;13057;50.978;11.034;2024-03-07T05:07:16;6.80;99.90
25058;DHT22;13057;50.978;11.034;2024-03-07T05:09:42;6.70;99.90
25058;DHT22;13057;50.978;11.034;2024-03-07T05:12:08;6.70;99.90
25058;DHT22;13057;50.978;11.034;2024-03-07T05:14:34;6.70;99.90
25058;DHT22;13057;50.978;11.034;2024-03-07T05:17:00;6.70;99.90
25058;DHT22;13057;50.978;11.034;2024-03-07T05:19:32;6.70;99.90
25058;DHT22;13057;50.978;11.034;2024-03-07T05:21:58;6.70;99.90
25058;DHT22;13057;50.978;11.034;2024-03-07T05:24:24;6.70;99.90
25058;DHT22;13057;50.978;11.034;2024-03-07T05:26:51;6.70;99.90
25058;DHT22;13057;50.978;11.034;2024-03-07T05:29:18;6.80;99.90
25058;DHT22;13057;50.978;11.034;2024-03-07T05:31:45;6.80;99.90
25058;DHT22;13057;50.978;11.034;2024-03-07T05:34:15;6.70;99.90
25058;DHT22;13057;50.978;11.034;2024-03-07T05:36:46;6.70;99.90
25058;DHT22;13057;50.978;11.034;2024-03-07T05:39:13;6.60;99.90
25058;DHT22;13057;50.978;11.034;2024-03-07T05:41:39;6.60;99.90
25058;DHT22;13057;50.978;11.034;2024-03-07T05:44:06;6.60;99.90
25058;DHT22;13057;50.978;11.034;2024-03-07T05:46:37;6.50;99.90
25058;DHT22;13057;50.978;11.034;2024-03-07T05:49:07;6.50;99.90
25058;DHT22;13057;50.978;11.034;2024-03-07T05:51:33;6.50;99.90
25058;DHT22;13057;50.978;11.034;2024-03-07T05:53:58;6.50;99.90
25058;DHT22;13057;50.978;11.034;2024-03-07T05:56:24;6.50;99.90
25058;DHT22;13057;50.978;11.034;2024-03-07T05:58:50;6.50;99.90
25058;DHT22;13057;50.978;11.034;2024-03-07T06:01:17;6.50;99.90
25058;DHT22;13057;50.978;11.034;2024-03-07T06:03:44;6.60;99.90
25058;DHT22;13057;50.978;11.034;2024-03-07T06:06:12;6.50;99.90
25058;DHT22;13057;50.978;11.034;2024-03-07T06:08:38;6.50;99.90
25058;DHT22;13057;50.978;11.034;2024-03-07T06:11:08;6.50;99.90
25058;DHT22;13057;50.978;11.034;2024-03-07T06:13:34;6.50;99.90
25058;DHT22;13057;50.978;11.034;2024-03-07T06:16:00;6.50;99.90
25058;DHT22;13057;50.978;11.034;2024-03-07T06:18:29;6.50;99.90
25058;DHT22;13057;50.978;11.034;2024-03-07T06:20:57;6.50;99.90
25058;DHT22;13057;50.978;11.034;2024-03-07T06:23:23;6.60;99.90
25058;DHT22;13057;50.978;11.034;2024-03-07T06:25:49;6.60;99.90
25058;DHT22;13057;50.978;11.034;2024-03-07T06:28:17;6.60;99.90
25058;DHT22;13057;50.978;11.034;2024-03-07T06:30:45;6.70;99.90
25058;DHT22;13057;50.978;11.034;2024-03-07T06:33:11;6.70;99.90
25058;DHT22;13057;50.978;11.034;2024-03-07T06:35:38;6.70;99.90
25058;DHT22;13057;50.978;11.034;2024-03-07T06:38:06;6.70;99.90
25058;DHT22;13057;50.978;11.034;2024-03-07T06:40:32;6.80;99.90
25058;DHT22;13057;50.978;11.034;2024-03-07T06:42:59;6.80;99.90
25058;DHT22;13057;50.978;11.034;2024-03-07T06:45:25;6.80;99.90
25058;DHT22;13057;50.978;11.034;2024-03-07T06:47:51;6.90;99.90
25058;DHT22;13057;50.978;11.034;2024-03-07T06:50:19;6.80;99.90
25058;DHT22;13057;50.978;11.034;2024-03-07T06:52:46;6.80;99.90
25058;DHT22;13057;50.978;11.034;2024-03-07T06:55:15;6.90;99.90
25058;DHT22;13057;50.978;11.034;2024-03-07T06:57:42;6.80;99.90
25058;DHT22;13057;50.978;11.034;2024-03-07T07:00:10;6.80;99.90
25058;DHT22;13057;50.978;11.034;2024-03-07T07:02:39;6.80;99.90
25058;DHT22;13057;50.978;11.034;2024-03-07T07:05:08;6.70;99.90
25058;DHT22;13057;50.978;11.034;2024-03-07T07:07:38;6.70;99.90
25058;DHT22;13057;50.978;11.034;2024-03-07T07:10:05;6.70;99.90
25058;DHT22;13057;50.978;11.034;2024-03-07T07:12:36;6.70;99.90
25058;DHT22;13057;50.978;11.034;2024-03-07T07:15:02;6.70;99.90
25058;DHT22;13057;50.978;11.034;2024-03-07T07:17:30;6.60;99.90
25058;DHT22;13057;50.978;11.034;2024-03-07T07:19:57;6.70;99.90
25058;DHT22;13057;50.978;11.034;2024-03-07T07:22:25;6.70;99.90
25058;DHT22;13057;50.978;11.034;2024-03-07T07:24:51;6.70;99.90
25058;DHT22;13057;50.978;11.034;2024-03-07T07:27:17;6.80;99.90
25058;DHT22;13057;50.978;11.034;2024-03-07T07:29:44;6.80;99.90
25058;DHT22;13057;50.978;11.034;2024-03-07T07:32:11;6.80;99.90
25058;DHT22;13057;50.978;11.034;2024-03-07T07:34:38;6.80;99.90
25058;DHT22;13057;50.978;11.034;2024-03-07T07:37:04;6.90;99.90
25058;DHT22;13057;50.978;11.034;2024-03-07T07:39:30;7.00;99.90
25058;DHT22;13057;50.978;11.034;2024-03-07T07:41:57;7.00;99.90
25058;DHT22;13057;50.978;11.034;2024-03-07T07:44:23;7.10;99.90
25058;DHT22;13057;50.978;11.034;2024-03-07T07:46:49;7.10;99.90
25058;DHT22;13057;50.978;11.034;2024-03-07T07:49:15;7.10;99.90
25058;DHT22;13057;50.978;11.034;2024-03-07T07:51:41;7.10;99.90
25058;DHT22;13057;50.978;11.034;2024-03-07T07:54:07;7.10;99.90
25058;DHT22;13057;50.978;11.034;2024-03-07T07:56:35;7.10;99.90
25058;DHT22;13057;50.978;11.034;2024-03-07T07:59:02;7.10;99.90
25058;DHT22;13057;50.978;11.034;2024-03-07T08:01:30;7.10;99.90
25058;DHT22;13057;50.978;11.034;2024-03-07T08:03:59;7.20;99.90
25058;DHT22;13057;50.978;11.034;2024-03-07T08:06:25;7.20;99.90
25058;DHT22;13057;50.978;11.034;2024-03-07T08:08:51;7.20;99.90
25058;DHT22;13057;50.978;11.034;2024-03-07T08:11:17;7.30;99.90
25058;DHT22;13057;50.978;11.034;2024-03-07T08:13:43;7.30;99.90
25058;DHT22;13057;50.978;11.034;2024-03-07T08:16:10;7.30;99.90
25058;DHT22;13057;50.978;11.034;2024-03-07T08:18:37;7.40;99.90
25058;DHT22;13057;50.978;11.034;2024-03-07T08:21:04;7.40;99.90
25058;DHT22;13057;50.978;11.034;2024-03-07T08:23:30;7.40;99.90
25058;DHT22;13057;50.978;11.034;2024-03-07T08:25:56;7.50;99.90
25058;DHT22;13057;50.978;11.034;2024-03-07T08:28:23;7.50;99.90
25058;DHT22;13057;50.978;11.034;2024-03-07T08:30:49;7.60;99.90
25058;DHT22;13057;50.978;11.034;2024-03-07T08:33:16;7.60;99.90
25058;DHT22;13057;50.978;11.034;2024-03-07T08:35:42;7.70;99.90
25058;DHT22;13057;50.978;11.034;2024-03-07T08:38:08;7.70;99.90
25058;DHT22;13057;50.978;11.034;2024-03-07T08:40:35;7.80;99.90
25058;DHT22;13057;50.978;11.034;2024-03-07T08:43:02;7.80;99.90
25058;DHT22;13057;50.978;11.034;2024-03-07T08:45:29;7.80;99.90
25058;DHT22;13057;50.978;11.034;2024-03-07T08:47:56;7.80;99.90
25058;DHT22;13057;50.978;11.034;2024-03-07T08:50:23;7.80;99.90
25058;DHT22;13057;50.978;11.034;2024-03-07T08:52:50;7.90;99.90
25058;DHT22;13057;50.978;11.034;2024-03-07T08:55:20;7.90;99.90
25058;DHT22;13057;50.978;11.034;2024-03-07T08:57:47;7.90;99.90
25058;DHT22;13057;50.978;11.034;2024-03-07T09:00:16;8.00;99.90
25058;DHT22;13057;50.978;11.034;2024-03-07T09:02:51;8.00;99.90
25058;DHT22;13057;50.978;11.034;2024-03-07T09:05:18;8.00;99.90
25058;DHT22;13057;50.978;11.034;2024-03-07T09:07:45;8.00;99.90
25058;DHT22;13057;50.978;11.034;2024-03-07T09:10:13;8.10;99.90
25058;DHT22;13057;50.978;11.034;2024-03-07T09:12:40;8.20;99.90
25058;DHT22;13057;50.978;11.034;2024-03-07T09:15:07;8.20;99.90
25058;DHT22;13057;50.978;11.034;2024-03-07T09:17:36;8.10;99.90
25058;DHT22;13057;50.978;11.034;2024-03-07T09:20:03;8.30;99.90
25058;DHT22;13057;50.978;11.034;2024-03-07T09:22:31;8.40;99.90
25058;DHT22;13057;50.978;11.034;2024-03-07T09:24:59;8.40;99.90
25058;DHT22;13057;50.978;11.034;2024-03-07T09:27:25;8.20;99.90
25058;DHT22;13057;50.978;11.034;2024-03-07T09:29:51;8.10;99.90
25058;DHT22;13057;50.978;11.034;2024-03-07T09:32:17;8.20;99.90
25058;DHT22;13057;50.978;11.034;2024-03-07T09:34:43;8.40;99.90
25058;DHT22;13057;50.978;11.034;2024-03-07T09:37:09;8.70;99.90
25058;DHT22;13057;50.978;11.034;2024-03-07T09:39:35;8.80;99.90
25058;DHT22;13057;50.978;11.034;2024-03-07T09:42:02;8.90;99.90
25058;DHT22;13057;50.978;11.034;2024-03-07T09:44:29;9.10;99.90
25058;DHT22;13057;50.978;11.034;2024-03-07T09:46:57;9.10;99.90
25058;DHT22;13057;50.978;11.034;2024-03-07T09:49:28;9.00;99.90
25058;DHT22;13057;50.978;11.034;2024-03-07T09:51:55;8.60;99.90
25058;DHT22;13057;50.978;11.034;2024-03-07T09:54:24;8.50;99.90
25058;DHT22;13057;50.978;11.034;2024-03-07T09:56:53;8.40;99.90
25058;DHT22;13057;50.978;11.034;2024-03-07T09:59:20;8.40;99.90
25058;DHT22;13057;50.978;11.034;2024-03-07T10:01:51;8.50;99.90
25058;DHT22;13057;50.978;11.034;2024-03-07T10:04:29;8.60;99.90
25058;DHT22;13057;50.978;11.034;2024-03-07T10:06:55;8.60;99.90
25058;DHT22;13057;50.978;11.034;2024-03-07T10:09:22;8.70;99.90
25058;DHT22;13057;50.978;11.034;2024-03-07T10:11:57;8.60;99.70
25058;DHT22;13057;50.978;11.034;2024-03-07T10:14:24;8.50;99.30
25058;DHT22;13057;50.978;11.034;2024-03-07T10:16:53;8.60;99.90
25058;DHT22;13057;50.978;11.034;2024-03-07T10:19:19;8.70;99.60
25058;DHT22;13057;50.978;11.034;2024-03-07T10:21:45;8.60;99.70
25058;DHT22;13057;50.978;11.034;2024-03-07T10:24:10;8.60;99.90
25058;DHT22;13057;50.978;11.034;2024-03-07T10:26:37;8.60;99.90
25058;DHT22;13057;50.978;11.034;2024-03-07T10:29:04;8.50;99.90
25058;DHT22;13057;50.978;11.034;2024-03-07T10:31:32;8.40;99.90
25058;DHT22;13057;50.978;11.034;2024-03-07T10:34:00;8.20;99.90
25058;DHT22;13057;50.978;11.034;2024-03-07T10:36:31;8.20;99.90
25058;DHT22;13057;50.978;11.034;2024-03-07T10:38:58;8.10;99.90
25058;DHT22;13057;50.978;11.034;2024-03-07T10:41:45;7.90;99.90
25058;DHT22;13057;50.978;11.034;2024-03-07T10:44:24;7.90;99.90
25058;DHT22;13057;50.978;11.034;2024-03-07T10:46:55;7.80;99.40
25058;DHT22;13057;50.978;11.034;2024-03-07T10:49:34;7.70;99.60
25058;DHT22;13057;50.978;11.034;2024-03-07T10:52:06;7.70;99.00
25058;DHT22;13057;50.978;11.034;2024-03-07T10:54:55;7.70;99.10
25058;DHT22;13057;50.978;11.034;2024-03-07T10:57:43;7.70;99.20
25058;DHT22;13057;50.978;11.034;2024-03-07T11:00:13;7.90;99.40
25058;DHT22;13057;50.978;11.034;2024-03-07T11:02:52;8.10;99.00
25058;DHT22;13057;50.978;11.034;2024-03-07T11:05:20;8.30;99.60
25058;DHT22;13057;50.978;11.034;2024-03-07T11:07:50;8.40;99.00
25058;DHT22;13057;50.978;11.034;2024-03-07T11:10:18;8.40;99.40
25058;DHT22;13057;50.978;11.034;2024-03-07T11:12:46;8.50;99.20
25058;DHT22;13057;50.978;11.034;2024-03-07T11:15:14;8.30;97.70
25058;DHT22;13057;50.978;11.034;2024-03-07T11:17:46;8.00;97.40
25058;DHT22;13057;50.978;11.034;2024-03-07T11:20:19;7.80;97.70
25058;DHT22;13057;50.978;11.034;2024-03-07T11:22:46;7.80;98.10
25058;DHT22;13057;50.978;11.034;2024-03-07T11:25:12;8.00;98.20
25058;DHT22;13057;50.978;11.034;2024-03-07T11:27:39;8.10;97.80
25058;DHT22;13057;50.978;11.034;2024-03-07T11:30:06;8.10;97.60
25058;DHT22;13057;50.978;11.034;2024-03-07T11:32:35;8.00;97.20
25058;DHT22;13057;50.978;11.034;2024-03-07T11:35:05;7.80;97.10
25058;DHT22;13057;50.978;11.034;2024-03-07T11:37:42;7.70;97.20
25058;DHT22;13057;50.978;11.034;2024-03-07T11:40:12;7.70;97.30
25058;DHT22;13057;50.978;11.034;2024-03-07T11:42:47;7.70;96.80
25058;DHT22;13057;50.978;11.034;2024-03-07T11:45:14;7.70;96.90
25058;DHT22;13057;50.978;11.034;2024-03-07T11:47:52;7.80;96.90
25058;DHT22;13057;50.978;11.034;2024-03-07T11:50:27;8.00;97.20
25058;DHT22;13057;50.978;11.034;2024-03-07T11:52:54;8.10;97.40
25058;DHT22;13057;50.978;11.034;2024-03-07T11:55:22;8.10;97.70
25058;DHT22;13057;50.978;11.034;2024-03-07T11:57:51;8.10;97.60
25058;DHT22;13057;50.978;11.034;2024-03-07T12:00:18;8.10;97.40
25058;DHT22;13057;50.978;11.034;2024-03-07T12:02:44;8.10;97.40
25058;DHT22;13057;50.978;11.034;2024-03-07T12:05:11;8.20;97.10
25058;DHT22;13057;50.978;11.034;2024-03-07T12:07:47;8.20;96.90
25058;DHT22;13057;50.978;11.034;2024-03-07T12:10:15;8.20;96.30
25058;DHT22;13057;50.978;11.034;2024-03-07T12:12:54;8.30;96.50
25058;DHT22;13057;50.978;11.034;2024-03-07T12:15:45;8.30;96.80
25058;DHT22;13057;50.978;11.034;2024-03-07T12:18:19;8.20;96.60
25058;DHT22;13057;50.978;11.034;2024-03-07T12:20:46;8.20;97.30
25058;DHT22;13057;50.978;11.034;2024-03-07T12:23:17;8.30;96.60
25058;DHT22;13057;50.978;11.034;2024-03-07T12:25:45;8.20;96.20
25058;DHT22;13057;50.978;11.034;2024-03-07T12:28:12;8.20;96.10
25058;DHT22;13057;50.978;11.034;2024-03-07T12:30:49;8.10;96.30
25058;DHT22;13057;50.978;11.034;2024-03-07T12:33:18;8.10;96.10
25058;DHT22;13057;50.978;11.034;2024-03-07T12:35:46;7.90;95.90
25058;DHT22;13057;50.978;11.034;2024-03-07T12:38:13;7.80;96.10
25058;DHT22;13057;50.978;11.034;2024-03-07T12:40:42;7.90;96.20
25058;DHT22;13057;50.978;11.034;2024-03-07T12:43:15;8.00;96.50
25058;DHT22;13057;50.978;11.034;2024-03-07T12:45:49;7.90;95.90
25058;DHT22;13057;50.978;11.034;2024-03-07T12:48:16;7.90;95.80
25058;DHT22;13057;50.978;11.034;2024-03-07T12:50:45;7.90;96.10
25058;DHT22;13057;50.978;11.034;2024-03-07T12:53:11;7.90;96.20
25058;DHT22;13057;50.978;11.034;2024-03-07T12:55:39;7.90;96.30
25058;DHT22;13057;50.978;11.034;2024-03-07T12:58:08;7.80;96.50
25058;DHT22;13057;50.978;11.034;2024-03-07T13:00:35;7.90;96.60
25058;DHT22;13057;50.978;11.034;2024-03-07T13:03:01;7.80;95.90
25058;DHT22;13057;50.978;11.034;2024-03-07T13:05:28;7.70;96.20
25058;DHT22;13057;50.978;11.034;2024-03-07T13:07:53;7.70;96.70
25058;DHT22;13057;50.978;11.034;2024-03-07T13:10:19;7.60;96.20
25058;DHT22;13057;50.978;11.034;2024-03-07T13:12:47;7.60;96.40
25058;DHT22;13057;50.978;11.034;2024-03-07T13:15:15;7.60;96.30
25058;DHT22;13057;50.978;11.034;2024-03-07T13:17:41;7.60;96.30
25058;DHT22;13057;50.978;11.034;2024-03-07T13:20:09;7.70;96.30
25058;DHT22;13057;50.978;11.034;2024-03-07T13:22:42;7.80;96.70
25058;DHT22;13057;50.978;11.034;2024-03-07T13:25:11;7.90;96.30
25058;DHT22;13057;50.978;11.034;2024-03-07T13:27:41;7.90;96.40
25058;DHT22;13057;50.978;11.034;2024-03-07T13:30:10;7.90;96.10
25058;DHT22;13057;50.978;11.034;2024-03-07T13:32:39;8.00;96.40
25058;DHT22;13057;50.978;11.034;2024-03-07T13:35:06;8.10;95.90
25058;DHT22;13057;50.978;11.034;2024-03-07T13:37:38;8.20;96.10
25058;DHT22;13057;50.978;11.034;2024-03-07T13:40:04;8.30;95.90
25058;DHT22;13057;50.978;11.034;2024-03-07T13:42:54;8.30;95.90
25058;DHT22;13057;50.978;11.034;2024-03-07T13:45:24;8.40;95.50
25058;DHT22;13057;50.978;11.034;2024-03-07T13:47:53;8.50;95.60
25058;DHT22;13057;50.978;11.034;2024-03-07T13:50:21;8.50;95.30
25058;DHT22;13057;50.978;11.034;2024-03-07T13:52:50;8.50;95.60
25058;DHT22;13057;50.978;11.034;2024-03-07T13:55:35;8.60;95.60
25058;DHT22;13057;50.978;11.034;2024-03-07T13:58:09;8.60;94.90
25058;DHT22;13057;50.978;11.034;2024-03-07T14:00:54;8.50;95.60
25058;DHT22;13057;50.978;11.034;2024-03-07T14:06:38;8.40;95.60
25058;DHT22;13057;50.978;11.034;2024-03-07T14:09:30;8.30;95.70
25058;DHT22;13057;50.978;11.034;2024-03-07T14:12:20;8.40;95.70
25058;DHT22;13057;50.978;11.034;2024-03-07T14:15:24;8.40;95.50
25058;DHT22;13057;50.978;11.034;2024-03-07T14:18:15;8.40;95.40
25058;DHT22;13057;50.978;11.034;2024-03-07T14:23:47;8.30;96.20
25058;DHT22;13057;50.978;11.034;2024-03-07T14:29:35;8.40;95.80
25058;DHT22;13057;50.978;11.034;2024-03-07T14:32:05;8.30;96.00
25058;DHT22;13057;50.978;11.034;2024-03-07T14:34:55;8.20;95.40
25058;DHT22;13057;50.978;11.034;2024-03-07T14:37:28;8.20;95.90
25058;DHT22;13057;50.978;11.034;2024-03-07T14:40:07;8.20;95.70
25058;DHT22;13057;50.978;11.034;2024-03-07T14:42:39;8.00;95.40
25058;DHT22;13057;50.978;11.034;2024-03-07T14:45:07;8.00;95.90
25058;DHT22;13057;50.978;11.034;2024-03-07T14:47:38;8.10;95.90
25058;DHT22;13057;50.978;11.034;2024-03-07T14:50:05;8.10;95.60
25058;DHT22;13057;50.978;11.034;2024-03-07T14:52:36;8.00;95.50
25058;DHT22;13057;50.978;11.034;2024-03-07T14:55:08;8.10;95.60
25058;DHT22;13057;50.978;11.034;2024-03-07T14:57:34;8.10;95.60
25058;DHT22;13057;50.978;11.034;2024-03-07T15:00:00;8.00;95.20
25058;DHT22;13057;50.978;11.034;2024-03-07T15:02:26;7.90;95.30
25058;DHT22;13057;50.978;11.034;2024-03-07T15:04:52;7.90;95.50
25058;DHT22;13057;50.978;11.034;2024-03-07T15:07:19;7.90;96.00
25058;DHT22;13057;50.978;11.034;2024-03-07T15:09:49;7.90;95.80
25058;DHT22;13057;50.978;11.034;2024-03-07T15:12:15;7.90;95.80
25058;DHT22;13057;50.978;11.034;2024-03-07T15:14:42;8.00;96.20
25058;DHT22;13057;50.978;11.034;2024-03-07T15:17:08;8.00;95.90
25058;DHT22;13057;50.978;11.034;2024-03-07T15:19:34;8.00;96.00
25058;DHT22;13057;50.978;11.034;2024-03-07T15:22:01;7.90;95.90
25058;DHT22;13057;50.978;11.034;2024-03-07T15:24:28;7.80;96.10
25058;DHT22;13057;50.978;11.034;2024-03-07T15:26:55;7.80;96.50
25058;DHT22;13057;50.978;11.034;2024-03-07T15:29:23;7.80;96.40
25058;DHT22;13057;50.978;11.034;2024-03-07T15:31:49;7.80;95.80
25058;DHT22;13057;50.978;11.034;2024-03-07T15:34:15;7.70;95.70
25058;DHT22;13057;50.978;11.034;2024-03-07T15:36:42;7.70;96.00
25058;DHT22;13057;50.978;11.034;2024-03-07T15:39:09;7.60;95.60
25058;DHT22;13057;50.978;11.034;2024-03-07T15:41:52;7.60;96.00
25058;DHT22;13057;50.978;11.034;2024-03-07T15:44:19;7.60;95.90
25058;DHT22;13057;50.978;11.034;2024-03-07T15:46:45;7.60;95.90
25058;DHT22;13057;50.978;11.034;2024-03-07T15:49:11;7.60;95.90